Time;durP1;ratioP1;P1;durP2;ratioP2;P2;SDS_P1;SDS_P2;PMS_P1;PMS_P2;Temp;Humidity;BMP_temperature;BMP_pressure;BME280_temperature;BME280_humidity;BME280_pressure;Samples;Min_cycle;Max_cycle;Signal;HPM_P1;HPM_P2
2022/09/12 00:01:24;;;;;;;11.10;10.00;;;14.30;99.90;;;-141.84;85.02;18923.78;5093626;28;20228;-67
2022/09/12 00:03:53;;;;;;;10.77;9.57;;;14.30;99.90;;;-141.84;85.48;18915.63;5093681;28;20223;-67
2022/09/12 00:06:25;;;;;;;12.05;10.73;;;14.20;99.90;;;-141.84;85.73;18903.44;5093572;28;20228;-66
2022/09/12 00:08:57;;;;;;;12.27;10.05;;;14.10;99.90;;;-141.84;85.93;18925.81;5093653;28;20235;-66
2022/09/12 00:11:26;;;;;;;11.77;10.50;;;14.10;99.90;;;-141.84;86.14;18905.47;5093639;28;20239;-66
2022/09/12 00:14:00;;;;;;;13.18;11.50;;;14.00;99.90;;;-141.84;86.26;18907.50;5093763;28;20253;-66
2022/09/12 00:16:32;;;;;;;13.63;11.55;;;14.00;99.90;;;-141.84;86.44;18897.34;5093313;28;20235;-66
2022/09/12 00:19:01;;;;;;;12.65;10.88;;;14.00;99.90;;;-141.84;86.75;18883.13;5092989;28;20231;-65
2022/09/12 00:21:30;;;;;;;13.68;11.15;;;13.90;99.90;;;-141.84;86.78;18901.41;5093265;28;20230;-66
2022/09/12 00:23:58;;;;;;;15.93;12.45;;;13.90;99.90;;;-141.84;86.48;18899.38;5092950;28;20231;-64
2022/09/12 00:26:26;;;;;;;14.63;13.13;;;14.00;99.90;;;-141.84;85.57;18935.97;5093373;28;20220;-65
2022/09/12 00:28:54;;;;;;;14.23;12.35;;;14.00;99.90;;;-141.84;84.31;18948.16;5093445;28;20211;-66
2022/09/12 00:31:25;;;;;;;14.88;11.98;;;14.10;99.90;;;-141.84;84.12;18905.47;5093030;28;20231;-67
2022/09/12 00:33:59;;;;;;;12.95;11.60;;;14.10;99.90;;;-141.84;84.25;18927.84;5093144;28;20230;-65
2022/09/12 00:36:30;;;;;;;14.57;12.18;;;14.20;99.90;;;-141.84;83.95;18942.06;5093064;28;20225;-65
2022/09/12 00:38:58;;;;;;;13.60;12.15;;;14.30;99.90;;;-141.84;83.89;18925.81;5093022;28;20228;-66
2022/09/12 00:41:30;;;;;;;13.18;11.38;;;14.30;99.90;;;-141.84;83.19;18948.16;5092170;28;20230;-66
2022/09/12 00:44:01;;;;;;;13.15;11.07;;;14.30;99.90;;;-141.84;81.57;18988.78;5093191;28;20191;-66
2022/09/12 00:46:37;;;;;;;12.10;10.90;;;14.40;99.90;;;-141.84;80.94;18978.63;5092814;28;20216;-66
2022/09/12 00:49:15;;;;;;;11.32;10.13;;;14.50;99.90;;;-141.84;81.65;19013.16;5092649;28;20219;-66
2022/09/12 00:51:49;;;;;;;12.82;10.80;;;14.40;99.90;;;-141.84;82.32;18960.34;5092685;28;20228;-66
2022/09/12 00:54:24;;;;;;;12.05;9.57;;;14.50;99.90;;;-141.84;82.65;18929.88;5092420;28;20316;-66
2022/09/12 00:56:57;;;;;;;13.77;10.93;;;14.50;99.90;;;-141.84;82.95;18956.28;5092745;28;20227;-65
2022/09/12 00:59:32;;;;;;;12.98;11.35;;;14.40;99.90;;;-141.84;83.41;18962.38;5092249;28;20228;-66
2022/09/12 01:02:00;;;;;;;13.20;11.40;;;14.40;99.90;;;-141.84;83.32;18893.28;5092913;28;20187;-66
2022/09/12 01:04:30;;;;;;;12.18;10.40;;;14.30;99.90;;;-141.84;83.73;18931.91;5092493;28;20265;-66
2022/09/12 01:06:59;;;;;;;13.48;11.40;;;14.30;99.90;;;-141.84;84.01;18905.47;5092763;28;20224;-65
2022/09/12 01:09:27;;;;;;;12.25;10.60;;;14.20;99.90;;;-141.84;84.46;18881.09;5092306;28;20231;-65
2022/09/12 01:11:56;;;;;;;13.23;11.07;;;14.10;99.90;;;-141.84;84.78;18903.44;5092340;28;20235;-66
2022/09/12 01:14:24;;;;;;;13.27;11.07;;;14.00;99.90;;;-141.84;85.15;18866.88;5092071;28;20200;-67
2022/09/12 01:16:53;;;;;;;13.23;11.02;;;13.90;99.90;;;-141.84;85.64;18895.31;5092825;28;20200;-65
2022/09/12 01:20:25;;;;;;;14.10;11.85;;;13.90;99.90;;;-141.84;85.64;18868.91;5092109;28;20251;-65
2022/09/12 01:23:48;;;;;;;13.98;10.50;;;13.90;99.90;;;-141.84;85.95;18846.56;5092499;28;20232;-67
2022/09/12 01:26:57;;;;;;;13.95;11.70;;;13.90;99.90;;;-141.84;85.63;18818.09;5091887;28;20220;-65
2022/09/12 01:29:50;;;;;;;14.25;12.13;;;14.00;99.90;;;-141.84;85.33;18903.44;5091905;28;20258;-66
2022/09/12 01:32:32;;;;;;;16.10;12.10;;;14.10;99.90;;;-141.84;84.62;18899.38;5092337;28;20196;-66
2022/09/12 01:35:15;;;;;;;15.95;11.90;;;14.00;99.90;;;-141.84;83.92;18903.44;5092772;28;20517;-65
2022/09/12 01:37:55;;;;;;;13.77;11.32;;;14.10;99.90;;;-141.84;83.86;18893.28;5092342;28;20212;-67
2022/09/12 01:40:33;;;;;;;11.80;10.32;;;14.00;99.90;;;-141.84;84.14;18870.94;5091817;28;20230;-66
2022/09/12 01:43:17;;;;;;;12.43;11.05;;;14.10;99.90;;;-141.84;84.44;18881.09;5091416;28;20238;-66
2022/09/12 01:45:56;;;;;;;12.65;10.90;;;14.10;99.90;;;-141.84;84.09;18917.66;5091497;28;20223;-66
2022/09/12 01:48:34;;;;;;;12.80;11.10;;;14.10;99.90;;;-141.84;84.50;18893.28;5091674;28;20234;-66
2022/09/12 01:51:12;;;;;;;12.90;11.52;;;14.10;99.90;;;-141.84;84.45;18883.13;5091452;28;20639;-66
2022/09/12 01:53:47;;;;;;;15.80;11.77;;;14.10;99.90;;;-141.84;84.23;18938.00;5091742;28;20227;-65
2022/09/12 01:56:21;;;;;;;13.45;10.77;;;14.00;99.90;;;-141.84;84.35;18870.94;5091281;28;20647;-65
2022/09/12 01:58:55;;;;;;;14.95;12.02;;;14.00;99.90;;;-141.84;84.65;18887.19;5091975;28;20219;-67
2022/09/12 02:01:29;;;;;;;14.38;11.27;;;14.00;99.90;;;-141.84;84.46;18919.69;5091186;28;20227;-65
2022/09/12 02:04:09;;;;;;;12.48;10.90;;;14.00;99.90;;;-141.84;84.44;18858.75;5091615;28;20243;-65
2022/09/12 02:06:46;;;;;;;13.75;11.68;;;13.90;99.90;;;-141.84;84.83;18868.91;5091247;28;20220;-65
2022/09/12 02:09:23;;;;;;;12.85;11.40;;;13.90;99.90;;;-141.84;85.54;18852.66;5091701;28;20854;-67
2022/09/12 02:11:58;;;;;;;13.63;11.63;;;13.80;99.90;;;-141.84;85.79;18824.22;5091490;28;20222;-66
2022/09/12 02:14:31;;;;;;;16.15;12.02;;;13.70;99.90;;;-141.84;86.19;18834.38;5091236;28;20269;-67
2022/09/12 02:17:09;;;;;;;14.25;12.00;;;13.70;99.90;;;-141.84;86.44;18830.31;5091889;28;20192;-65
2022/09/12 02:19:45;;;;;;;14.43;12.25;;;13.70;99.90;;;-141.84;86.83;18832.34;5091531;28;20569;-67
2022/09/12 02:22:19;;;;;;;14.80;12.27;;;13.60;99.90;;;-141.84;86.97;18820.16;5090959;28;20228;-66
2022/09/12 02:24:55;;;;;;;14.73;12.15;;;13.60;99.90;;;-141.84;87.19;18820.16;5091081;28;20223;-66
2022/09/12 02:27:30;;;;;;;16.25;12.93;;;13.60;99.90;;;-141.84;87.51;18826.25;5090776;28;20246;-66
2022/09/12 02:29:58;;;;;;;17.48;13.40;;;13.50;99.90;;;-141.84;87.82;18789.66;5091148;28;20227;-65
2022/09/12 02:32:36;;;;;;;17.30;13.48;;;13.50;99.90;;;-141.84;88.26;18775.44;5091189;28;20220;-66
2022/09/12 02:35:14;;;;;;;15.35;12.07;;;13.50;99.90;;;-141.84;88.71;18769.34;5091275;28;20188;-65
2022/09/12 02:37:57;;;;;;;15.37;13.23;;;13.40;99.90;;;-141.84;89.15;18781.53;5091791;28;20613;-65
2022/09/12 02:40:26;;;;;;;16.43;12.50;;;13.30;99.90;;;-141.84;89.16;18777.47;5090871;28;20224;-66
2022/09/12 02:42:54;;;;;;;17.10;12.75;;;13.30;99.90;;;-141.84;89.25;18769.34;5090779;28;20626;-66
2022/09/12 02:45:22;;;;;;;18.05;13.80;;;13.30;99.90;;;-141.84;89.50;18767.31;5091091;28;20736;-67
2022/09/12 02:47:58;;;;;;;19.25;13.27;;;13.20;99.90;;;-141.84;89.52;18809.97;5091143;28;20600;-66
2022/09/12 02:50:29;;;;;;;18.60;13.57;;;13.20;99.90;;;-141.84;89.36;18759.19;5090847;28;20713;-65
2022/09/12 02:53:01;;;;;;;17.00;13.20;;;13.10;99.90;;;-141.84;89.43;18728.72;5091287;28;20667;-66
2022/09/12 02:55:29;;;;;;;16.67;14.15;;;13.10;99.90;;;-141.84;89.48;18736.84;5090785;28;20250;-65
2022/09/12 02:57:58;;;;;;;18.83;14.07;;;13.10;99.90;;;-141.84;89.57;18747.00;5090461;28;20226;-66
2022/09/12 03:00:28;;;;;;;17.83;13.93;;;13.00;99.90;;;-141.84;89.20;18740.91;5090876;28;20232;-66
2022/09/12 03:03:26;;;;;;;17.80;13.90;;;13.00;99.90;;;-141.84;89.31;18740.91;5090935;28;20224;-65
2022/09/12 03:06:00;;;;;;;17.77;13.95;;;13.00;99.90;;;-141.84;89.61;18753.09;5094853;28;20232;-66
2022/09/12 03:09:04;;;;;;;17.33;13.85;;;12.90;99.90;;;-141.84;90.03;18730.75;5094829;28;20231;-66
2022/09/12 03:12:02;;;;;;;18.40;15.05;;;12.90;99.90;;;-141.84;90.27;18716.53;5094887;28;20235;-66
2022/09/12 03:15:15;;;;;;;19.00;14.85;;;12.90;99.90;;;-141.84;90.24;18700.25;5094210;28;20223;-65
2022/09/12 03:18:03;;;;;;;17.33;14.52;;;12.80;99.90;;;-141.84;90.00;18724.66;5094603;28;20588;-67
2022/09/12 03:20:46;;;;;;;19.57;14.83;;;12.90;99.90;;;-141.84;90.01;18706.38;5094409;28;20223;-66
2022/09/12 03:23:26;;;;;;;22.37;15.90;;;12.80;99.90;;;-141.84;90.19;18704.31;5094204;28;20670;-67
2022/09/12 03:26:01;;;;;;;19.55;15.77;;;12.80;99.90;;;-141.84;90.29;18720.59;5094997;28;20192;-64
2022/09/12 03:28:32;;;;;;;20.80;16.57;;;12.80;99.90;;;-141.84;90.30;18694.16;5094028;28;20224;-68
2022/09/12 03:31:00;;;;;;;19.40;15.63;;;12.70;99.90;;;-141.84;90.75;18681.97;5094014;28;20228;-66
2022/09/12 03:33:30;;;;;;;19.45;15.38;;;12.70;99.90;;;-141.84;91.23;18653.53;5094083;28;20311;-66
2022/09/12 03:35:58;;;;;;;19.90;15.70;;;12.70;99.90;;;-141.84;91.32;18659.63;5094246;28;20235;-66
2022/09/12 03:38:27;;;;;;;19.40;15.23;;;12.70;99.90;;;-141.84;91.60;18653.53;5094118;28;20651;-67
2022/09/12 03:40:55;;;;;;;19.17;15.82;;;12.70;99.90;;;-141.84;91.10;18694.16;5094494;28;20617;-65
2022/09/12 03:43:23;;;;;;;21.13;16.40;;;12.70;99.90;;;-141.84;90.37;18663.69;5093410;28;20230;-66
2022/09/12 03:45:52;;;;;;;20.15;15.07;;;12.70;99.90;;;-141.84;90.26;18651.50;5093861;28;20604;-65
2022/09/12 03:48:20;;;;;;;20.40;15.90;;;12.70;99.90;;;-141.84;90.46;18655.56;5093743;28;20247;-65
2022/09/12 03:50:48;;;;;;;20.87;16.27;;;12.60;99.90;;;-141.84;90.44;18671.81;5093741;28;20227;-65
2022/09/12 03:53:16;;;;;;;20.17;15.67;;;12.60;99.90;;;-141.84;90.21;18667.75;5093769;28;20208;-65
2022/09/12 03:55:46;;;;;;;20.37;16.33;;;12.60;99.90;;;-141.84;90.18;18671.81;5094637;28;20253;-66
2022/09/12 03:58:13;;;;;;;21.40;16.50;;;12.60;99.90;;;-141.84;90.20;18649.47;5093155;28;20792;-65
2022/09/12 04:00:43;;;;;;;22.83;16.20;;;12.60;99.90;;;-141.84;90.05;18635.25;5093598;28;20224;-67
2022/09/12 04:03:11;;;;;;;21.43;16.40;;;12.60;99.90;;;-141.84;90.38;18681.97;5093420;28;20277;-67
2022/09/12 04:05:39;;;;;;;23.48;16.23;;;12.60;99.90;;;-141.84;90.64;18619.00;5093748;28;20227;-66
2022/09/12 04:08:07;;;;;;;23.07;17.30;;;12.60;99.90;;;-141.84;90.98;18643.38;5093633;28;20413;-66
2022/09/12 04:10:35;;;;;;;23.53;17.40;;;12.60;99.90;;;-141.84;91.31;18657.59;5094083;28;20196;-66
2022/09/12 04:13:04;;;;;;;24.17;17.13;;;12.70;99.90;;;-141.84;91.44;18643.38;5093066;28;20247;-66
2022/09/12 04:15:32;;;;;;;20.93;17.50;;;12.60;99.90;;;-141.84;91.42;18610.88;5093202;28;20235;-66
2022/09/12 04:18:00;;;;;;;21.80;16.43;;;12.70;99.90;;;-141.84;91.70;18635.25;5092991;28;20223;-65
2022/09/12 04:20:33;;;;;;;22.07;16.77;;;12.70;99.90;;;-141.84;91.72;18635.25;5093257;28;20236;-66
2022/09/12 04:23:01;;;;;;;22.30;17.80;;;12.70;99.90;;;-141.84;91.64;18625.09;5093196;28;20211;-66
2022/09/12 04:25:30;;;;;;;22.87;17.30;;;12.70;99.90;;;-141.84;91.63;18612.91;5092865;28;20632;-67
2022/09/12 04:27:58;;;;;;;23.80;17.60;;;12.60;99.90;;;-141.84;91.89;18633.22;5092617;28;20315;-67
2022/09/12 04:30:27;;;;;;;23.77;17.80;;;12.70;99.90;;;-141.84;91.96;18659.63;5092956;28;20220;-64
2022/09/12 04:32:55;;;;;;;23.47;17.33;;;12.80;99.90;;;-141.84;92.17;18637.28;5092895;28;20247;-65
2022/09/12 04:35:23;;;;;;;24.80;18.20;;;12.80;99.90;;;-141.84;91.85;18671.81;5093183;28;20200;-64
2022/09/12 04:37:51;;;;;;;22.27;16.60;;;12.90;99.90;;;-141.84;91.48;18651.50;5093478;28;20249;-66
2022/09/12 04:40:20;;;;;;;23.02;17.73;;;12.90;99.90;;;-141.84;91.17;18643.38;5092759;28;20260;-64
2022/09/12 04:42:48;;;;;;;25.23;18.02;;;13.00;99.90;;;-141.84;90.42;18651.50;5092696;28;20228;-65
2022/09/12 04:45:16;;;;;;;22.85;17.55;;;13.00;99.90;;;-141.84;90.07;18643.38;5092513;28;20228;-65
2022/09/12 04:47:46;;;;;;;22.27;16.90;;;13.00;99.90;;;-141.84;90.00;18602.75;5092933;28;20258;-65
2022/09/12 04:50:14;;;;;;;21.43;16.50;;;13.00;99.90;;;-141.84;89.88;18635.25;5092810;28;20200;-65
2022/09/12 04:52:42;;;;;;;22.02;17.17;;;13.00;99.90;;;-141.84;89.50;18677.91;5093287;28;20204;-65
2022/09/12 04:55:10;;;;;;;20.70;16.70;;;13.00;99.90;;;-141.84;89.11;18629.16;5092280;28;20239;-65
2022/09/12 04:57:38;;;;;;;19.80;16.08;;;13.10;99.90;;;-141.84;89.01;18633.22;5094677;28;20285;-66
2022/09/12 05:00:09;;;;;;;20.87;15.90;;;13.00;99.90;;;-141.84;89.25;18641.34;5094769;28;20254;-65
2022/09/12 05:02:37;;;;;;;19.83;15.48;;;13.00;99.90;;;-141.84;89.10;18633.22;5095554;28;20219;-65
2022/09/12 05:05:08;;;;;;;21.30;16.17;;;13.00;99.90;;;-141.84;88.43;18606.81;5094960;28;20253;-66
2022/09/12 05:07:36;;;;;;;21.38;16.27;;;12.80;99.90;;;-141.84;88.38;18610.88;5095556;28;20238;-66
2022/09/12 05:10:05;;;;;;;22.63;17.03;;;12.90;99.90;;;-141.84;88.40;18619.00;5093725;28;20718;-65
2022/09/12 05:12:34;;;;;;;23.65;17.48;;;12.90;99.90;;;-141.84;88.36;18610.88;5093248;28;20302;-65
2022/09/12 05:15:03;;;;;;;23.07;16.97;;;12.90;99.90;;;-141.84;88.85;18625.09;5093295;28;20475;-65
2022/09/12 05:17:31;;;;;;;22.23;16.95;;;12.90;99.90;;;-141.84;88.75;18637.28;5094393;28;20224;-65
2022/09/12 05:20:00;;;;;;;21.00;16.47;;;12.90;99.90;;;-141.84;88.87;18602.75;5094778;28;20220;-65
2022/09/12 05:22:29;;;;;;;21.73;15.82;;;12.90;99.90;;;-141.84;88.81;18619.00;5093112;28;20236;-65
2022/09/12 05:24:57;;;;;;;20.83;16.20;;;12.90;99.90;;;-141.84;89.02;18623.06;5092902;28;20223;-65
2022/09/12 05:27:25;;;;;;;22.25;16.67;;;12.90;99.90;;;-141.84;89.09;18651.50;5092328;28;20228;-65
2022/09/12 05:29:54;;;;;;;23.70;17.40;;;13.00;99.90;;;-141.84;88.38;18621.03;5092794;28;20227;-65
2022/09/12 05:32:22;;;;;;;22.37;16.10;;;12.90;99.90;;;-141.84;87.65;18635.25;5092759;28;20196;-66
2022/09/12 05:34:50;;;;;;;21.13;16.33;;;13.00;99.90;;;-141.84;86.68;18677.91;5092653;28;20222;-66
2022/09/12 05:37:18;;;;;;;25.33;18.03;;;13.10;99.90;;;-141.84;86.25;18631.19;5091857;28;20228;-66
2022/09/12 05:39:47;;;;;;;23.53;17.50;;;13.10;99.90;;;-141.84;86.09;18643.38;5091782;28;20224;-63
2022/09/12 05:42:15;;;;;;;21.92;16.58;;;13.20;99.90;;;-141.84;85.25;18702.28;5091966;28;20846;-66
2022/09/12 05:44:43;;;;;;;22.20;16.88;;;13.30;99.90;;;-141.84;84.97;18692.13;5092325;28;20232;-65
2022/09/12 05:47:12;;;;;;;19.73;15.40;;;13.30;99.90;;;-141.84;84.63;18688.06;5091489;28;20207;-65
2022/09/12 05:49:40;;;;;;;20.55;16.17;;;13.40;99.90;;;-141.84;85.00;18704.31;5091774;28;20261;-65
2022/09/12 05:52:08;;;;;;;23.50;17.25;;;13.60;99.90;;;-141.84;84.10;18763.25;5090095;28;20711;-65
2022/09/12 05:54:36;;;;;;;20.80;17.13;;;13.80;99.90;;;-141.84;80.45;18814.03;5091264;28;20220;-64
2022/09/12 05:57:05;;;;;;;18.40;15.02;;;13.90;99.90;;;-141.84;78.99;18881.09;5091392;28;20235;-65
2022/09/12 05:59:34;;;;;;;19.50;15.07;;;14.10;99.90;;;-141.84;77.74;18956.28;5091360;28;20276;-65
2022/09/12 06:02:02;;;;;;;21.20;15.23;;;14.30;99.90;;;-141.84;77.07;18984.72;5092208;28;20231;-65
2022/09/12 06:04:30;;;;;;;20.02;15.18;;;14.50;99.90;;;-141.84;76.60;19017.25;5091666;28;20219;-65
2022/09/12 06:06:58;;;;;;;19.52;14.60;;;14.60;99.90;;;-141.84;74.68;19104.59;5091236;28;20711;-65
2022/09/12 06:09:26;;;;;;;18.58;14.75;;;14.80;99.90;;;-141.84;75.77;19074.13;5091411;28;20219;-65
2022/09/12 06:11:54;;;;;;;18.10;14.23;;;14.90;99.90;;;-141.84;75.33;19090.38;5091638;28;20236;-66
2022/09/12 06:14:24;;;;;;;21.13;14.95;;;15.00;99.90;;;-141.84;74.58;19161.50;5091120;28;20211;-65
2022/09/12 06:16:52;;;;;;;21.17;14.75;;;14.90;99.90;;;-141.84;75.28;19110.72;5091947;28;20200;-65
2022/09/12 06:19:23;;;;;;;24.02;15.18;;;14.90;99.90;;;-141.84;74.17;19167.59;5091272;28;20220;-65
2022/09/12 06:21:52;;;;;;;19.55;14.32;;;15.00;99.90;;;-141.84;74.52;19145.25;5091040;28;20234;-66
2022/09/12 06:24:21;;;;;;;20.40;14.35;;;15.00;99.90;;;-141.84;75.90;19088.34;5091104;28;20764;-66
2022/09/12 06:26:51;;;;;;;21.58;14.30;;;15.10;99.90;;;-141.84;76.22;19106.66;5090948;28;20604;-65
2022/09/12 06:29:20;;;;;;;19.50;13.38;;;15.10;99.90;;;-141.84;76.32;19137.13;5091519;28;20203;-65
2022/09/12 06:31:49;;;;;;;16.38;12.98;;;15.10;99.90;;;-141.84;76.54;19102.56;5091827;28;20328;-65
2022/09/12 06:34:18;;;;;;;19.15;14.50;;;15.10;99.90;;;-141.84;75.05;19108.69;5091313;28;20231;-65
2022/09/12 06:36:49;;;;;;;18.63;15.35;;;15.10;99.90;;;-141.84;75.90;19126.97;5090882;28;20219;-65
2022/09/12 06:39:20;;;;;;;17.90;14.23;;;15.10;99.90;;;-141.84;76.07;19100.53;5094981;28;20258;-65
2022/09/12 06:41:50;;;;;;;17.77;15.10;;;15.00;99.90;;;-141.84;75.61;19116.81;5094970;28;20848;-65
2022/09/12 06:44:21;;;;;;;17.80;14.55;;;15.00;99.90;;;-141.84;75.11;19118.84;5094306;28;20233;-65
2022/09/12 06:46:52;;;;;;;18.15;14.45;;;15.10;99.90;;;-141.84;73.92;19173.69;5094728;28;20555;-66
2022/09/12 06:49:20;;;;;;;16.52;13.65;;;15.20;99.90;;;-141.84;74.19;19167.59;5094319;28;20231;-65
2022/09/12 06:51:48;;;;;;;17.20;14.52;;;15.30;99.90;;;-141.84;73.42;19200.13;5093347;28;20219;-65
2022/09/12 06:54:17;;;;;;;18.08;14.30;;;15.30;99.90;;;-141.84;74.03;19240.75;5094505;28;20633;-65
2022/09/12 06:56:45;;;;;;;21.65;15.25;;;15.40;99.90;;;-141.84;74.36;19240.75;5092827;28;20317;-66
2022/09/12 06:59:13;;;;;;;19.38;14.55;;;15.50;99.90;;;-141.84;72.98;19265.13;5093075;28;20265;-65
2022/09/12 07:01:41;;;;;;;18.02;14.38;;;15.60;99.90;;;-141.84;73.36;19226.53;5094810;28;20638;-66
2022/09/12 07:04:11;;;;;;;18.90;13.90;;;15.70;99.90;;;-141.84;72.10;19342.34;5094656;28;20239;-64
2022/09/12 07:06:43;;;;;;;17.55;14.10;;;15.70;99.90;;;-141.84;72.29;19328.13;5094432;28;20227;-66
2022/09/12 07:09:15;;;;;;;17.35;13.80;;;15.80;99.90;;;-141.84;72.15;19336.25;5094681;28;20234;-65
2022/09/12 07:11:46;;;;;;;13.95;12.20;;;15.90;99.90;;;-141.84;71.79;19352.53;5094462;28;20227;-66
2022/09/12 07:14:15;;;;;;;16.98;13.95;;;15.90;99.90;;;-141.84;72.43;19350.50;5094590;28;20199;-65
2022/09/12 07:16:44;;;;;;;16.48;13.27;;;16.00;99.90;;;-141.84;72.70;19344.41;5095154;28;20207;-65
2022/09/12 07:19:13;;;;;;;18.48;13.00;;;16.00;99.90;;;-141.84;72.13;19385.03;5094658;28;20227;-65
2022/09/12 07:21:41;;;;;;;17.08;13.35;;;16.20;99.90;;;-141.84;71.42;19411.44;5094171;28;20228;-65
2022/09/12 07:24:10;;;;;;;12.82;11.48;;;16.20;99.90;;;-141.84;72.08;19364.72;5094195;28;20227;-65
2022/09/12 07:26:40;;;;;;;13.50;11.38;;;16.30;99.90;;;-141.84;72.00;19374.88;5094346;28;20228;-65
2022/09/12 07:29:16;;;;;;;13.05;11.25;;;16.30;99.90;;;-141.84;72.15;19425.69;5094192;28;20604;-65
2022/09/12 07:32:04;;;;;;;15.13;13.45;;;16.30;99.90;;;-141.84;70.78;19443.97;5094558;28;20317;-65
2022/09/12 07:34:35;;;;;;;12.88;11.38;;;16.40;99.90;;;-141.84;70.85;19431.78;5094539;28;20246;-65
2022/09/12 07:37:03;;;;;;;14.38;12.88;;;16.40;99.90;;;-141.84;69.90;19494.78;5093943;28;20227;-66
2022/09/12 07:39:31;;;;;;;14.80;12.98;;;16.50;99.90;;;-141.84;68.35;19602.47;5093878;28;20782;-66
2022/09/12 07:42:00;;;;;;;12.18;10.98;;;16.70;99.90;;;-141.84;68.66;19667.50;5093828;28;20258;-65
2022/09/12 07:44:28;;;;;;;13.00;11.70;;;16.90;99.90;;;-141.84;68.03;19635.00;5093792;28;20219;-65
2022/09/12 07:46:56;;;;;;;14.20;12.70;;;17.00;99.90;;;-141.84;68.00;19659.38;5093955;28;20675;-65
2022/09/12 07:49:24;;;;;;;12.73;10.93;;;17.00;99.90;;;-141.84;68.16;19683.78;5093011;28;20232;-66
2022/09/12 07:51:54;;;;;;;15.15;12.63;;;17.10;99.90;;;-141.84;67.11;19744.75;5093550;28;20227;-66
2022/09/12 07:54:22;;;;;;;15.35;12.73;;;17.10;99.90;;;-141.84;67.31;19708.16;5093843;28;20277;-65
2022/09/12 07:56:50;;;;;;;12.43;11.10;;;17.10;99.90;;;-141.84;67.93;19679.72;5093370;28;20227;-65
2022/09/12 07:59:18;;;;;;;12.50;11.20;;;17.00;99.90;;;-141.84;68.30;19673.59;5093396;28;20211;-65
2022/09/12 08:02:10;;;;;;;14.80;11.75;;;17.00;99.90;;;-141.84;68.47;19679.72;5093293;28;20315;-66
2022/09/12 08:04:43;;;;;;;14.20;12.00;;;17.00;99.90;;;-141.84;68.29;19679.72;5094135;28;20184;-65
2022/09/12 08:07:13;;;;;;;13.75;11.70;;;17.00;99.90;;;-141.84;67.30;19738.66;5093445;28;20223;-67
2022/09/12 08:09:41;;;;;;;14.02;11.70;;;17.20;99.90;;;-141.84;67.24;19752.88;5093463;28;20235;-66
2022/09/12 08:12:09;;;;;;;10.73;9.60;;;17.10;99.90;;;-141.84;68.30;19695.97;5093384;28;20682;-65
2022/09/12 08:14:37;;;;;;;11.98;10.60;;;17.10;99.90;;;-141.84;68.50;19667.50;5093268;28;20240;-65
2022/09/12 08:17:05;;;;;;;17.42;12.68;;;17.20;99.90;;;-141.84;68.23;19710.19;5093292;28;20200;-67
2022/09/12 08:19:33;;;;;;;11.40;9.95;;;17.20;99.90;;;-141.84;68.06;19722.38;5093739;28;20200;-65
2022/09/12 08:22:01;;;;;;;11.80;10.52;;;17.30;99.90;;;-141.84;67.75;19714.25;5093114;28;20224;-65
2022/09/12 08:24:32;;;;;;;11.73;9.82;;;17.50;99.90;;;-141.84;67.54;19785.38;5092949;28;20231;-65
2022/09/12 08:27:00;;;;;;;11.20;9.77;;;17.60;99.90;;;-141.84;67.54;19750.84;5093076;28;20242;-65
2022/09/12 08:29:28;;;;;;;9.02;8.13;;;17.50;99.90;;;-141.84;67.26;19761.00;5093010;28;20578;-66
2022/09/12 08:31:56;;;;;;;13.15;9.82;;;17.60;99.90;;;-141.84;66.66;19880.91;5093608;28;20200;-66
2022/09/12 08:34:25;;;;;;;9.38;8.38;;;17.60;99.90;;;-141.84;66.65;19832.13;5092786;28;20224;-66
2022/09/12 08:36:53;;;;;;;8.82;7.15;;;17.70;99.90;;;-141.84;66.26;19862.63;5092521;28;20588;-66
2022/09/12 08:39:22;;;;;;;9.50;7.10;;;17.80;99.90;;;-141.84;65.93;19905.28;5092862;28;20228;-66
2022/09/12 08:42:01;;;;;;;7.63;6.93;;;18.00;99.90;;;-141.84;65.51;19966.28;5092570;28;20228;-65
2022/09/12 08:45:02;;;;;;;8.32;6.68;;;18.10;99.90;;;-141.84;64.85;20013.00;5092512;28;20227;-65
2022/09/12 08:47:35;;;;;;;9.27;8.32;;;18.20;99.90;;;-141.84;63.99;20102.44;5092285;28;20228;-66
2022/09/12 08:50:15;;;;;;;11.30;7.85;;;18.30;99.90;;;-141.84;63.29;20134.97;5093499;28;20253;-66
2022/09/12 08:52:52;;;;;;;6.60;6.00;;;18.40;99.90;;;-141.84;62.69;20220.34;5092358;28;20253;-66
2022/09/12 08:55:32;;;;;;;8.50;7.57;;;18.60;99.90;;;-141.84;62.01;20271.16;5092161;28;20715;-66
2022/09/12 08:58:11;;;;;;;7.80;7.03;;;18.60;99.90;;;-141.84;62.39;20277.25;5091781;28;20246;-66
2022/09/12 09:00:54;;;;;;;6.60;5.90;;;18.60;99.90;;;-141.84;62.23;20289.44;5091765;28;20223;-66
2022/09/12 09:03:56;;;;;;;6.07;5.28;;;18.70;99.90;;;-141.84;61.56;20326.03;5091957;28;20238;-64
2022/09/12 09:06:45;;;;;;;7.22;6.47;;;18.80;99.90;;;-141.84;62.32;20289.44;5092335;28;20227;-66
2022/09/12 09:09:26;;;;;;;8.32;7.43;;;18.70;99.90;;;-141.84;61.71;20321.97;5091925;28;20227;-66
2022/09/12 09:12:07;;;;;;;8.52;7.60;;;18.60;99.90;;;-141.84;61.34;20348.38;5092168;28;20227;-65
2022/09/12 09:15:27;;;;;;;6.80;6.13;;;18.50;99.90;;;-141.84;63.20;20224.41;5091702;28;20231;-66
2022/09/12 09:18:03;;;;;;;7.50;6.90;;;18.40;99.90;;;-141.84;63.31;20222.38;5092012;28;20243;-65
2022/09/12 09:20:39;;;;;;;9.00;6.50;;;18.20;99.90;;;-141.84;62.53;20250.81;5092094;28;20219;-67
2022/09/12 09:23:14;;;;;;;5.15;4.70;;;18.30;99.90;;;-141.84;63.03;20208.13;5091546;28;20247;-66
2022/09/12 09:25:54;;;;;;;10.25;7.72;;;18.30;99.90;;;-141.84;61.89;20283.34;5092533;28;20188;-65
2022/09/12 09:28:31;;;;;;;8.38;6.88;;;18.40;99.90;;;-141.84;62.49;20248.78;5091613;28;20223;-65
2022/09/12 09:31:00;;;;;;;6.78;6.07;;;18.40;99.90;;;-141.84;62.56;20263.00;5091834;28;20781;-65
2022/09/12 09:33:34;;;;;;;6.20;5.60;;;18.50;99.90;;;-141.84;62.16;20330.09;5091631;28;20223;-66
2022/09/12 09:36:17;;;;;;;6.70;5.65;;;18.70;99.90;;;-141.84;62.14;20346.34;5091933;28;20219;-66
2022/09/12 09:38:50;;;;;;;7.30;6.53;;;18.80;99.90;;;-141.84;60.61;20452.06;5091849;28;20574;-65
2022/09/12 09:41:37;;;;;;;6.88;6.18;;;18.90;99.90;;;-141.84;60.73;20450.03;5091630;28;20192;-67
2022/09/12 09:44:05;;;;;;;5.88;5.32;;;19.00;99.90;;;-141.84;60.02;20508.97;5091086;28;20212;-67
2022/09/12 09:46:39;;;;;;;5.90;5.40;;;19.00;99.90;;;-141.84;59.86;20511.00;5092145;28;20184;-66
2022/09/12 09:49:13;;;;;;;5.47;4.97;;;19.00;99.90;;;-141.84;56.72;20691.91;5091367;28;20489;-66
2022/09/12 09:51:43;;;;;;;4.80;4.00;;;19.20;99.90;;;-141.84;57.31;20708.19;5091581;28;20228;-67
2022/09/12 09:54:21;;;;;;;5.65;5.15;;;19.30;99.90;;;-141.84;56.75;20805.75;5091292;28;20228;-65
2022/09/12 09:56:49;;;;;;;4.88;4.38;;;19.40;99.90;;;-141.84;56.04;20885.03;5091562;28;20231;-66
2022/09/12 09:59:25;;;;;;;5.40;4.90;;;19.60;99.90;;;-141.84;53.70;21007.00;5091339;28;20195;-65
2022/09/12 10:02:00;;;;;;;4.75;4.32;;;19.90;99.90;;;-141.84;54.55;20964.31;5091924;28;20184;-65
2022/09/12 10:04:32;;;;;;;3.70;3.40;;;20.00;99.90;;;-141.84;52.73;21029.38;5090701;28;20224;-66
2022/09/12 10:07:04;;;;;;;5.05;4.55;;;20.10;99.90;;;-141.84;52.96;21049.72;5091197;28;20223;-66
2022/09/12 10:09:35;;;;;;;7.57;4.50;;;20.20;99.90;;;-141.84;52.88;21100.53;5091001;28;20224;-66
2022/09/12 10:12:25;;;;;;;5.25;4.32;;;20.20;99.90;;;-141.84;53.52;21131.03;5091336;28;20223;-65
2022/09/12 10:14:59;;;;;;;5.65;5.05;;;20.30;99.90;;;-141.84;53.44;21192.03;5091040;28;20231;-66
2022/09/12 10:17:39;;;;;;;4.65;4.25;;;20.40;99.90;;;-141.84;53.51;21183.88;5091215;28;20227;-65
2022/09/12 10:20:32;;;;;;;5.15;4.40;;;20.60;99.90;;;-141.84;52.56;21212.34;5091382;28;20215;-66